Time;durP1;ratioP1;P1;durP2;ratioP2;P2;SDS_P1;SDS_P2;PMS_P1;PMS_P2;Temp;Humidity;BMP_temperature;BMP_pressure;BME280_temperature;BME280_humidity;BME280_pressure;Samples;Min_cycle;Max_cycle;Signal;HPM_P1;HPM_P2
2022/03/31 00:00:57;;;;;;;3.07;2.77;;;6.10;94.90;;;;;;5032592;28;20219;-87
2022/03/31 00:03:23;;;;;;;3.50;3.20;;;6.00;95.00;;;;;;5033678;28;20291;-90
2022/03/31 00:05:50;;;;;;;3.20;2.83;;;6.00;95.00;;;;;;5033981;28;20219;-88
2022/03/31 00:08:18;;;;;;;3.87;2.90;;;6.00;94.90;;;;;;5033996;28;20220;-88
2022/03/31 00:10:47;;;;;;;4.70;2.97;;;5.90;94.80;;;;;;5033555;28;20229;-86
2022/03/31 00:13:16;;;;;;;3.97;3.23;;;5.90;94.90;;;;;;5032037;28;20205;-85
2022/03/31 00:15:42;;;;;;;6.00;2.80;;;6.00;94.90;;;;;;5031520;28;20212;-79
2022/03/31 00:18:12;;;;;;;2.80;2.60;;;6.00;94.90;;;;;;5030984;28;20262;-79
2022/03/31 00:20:38;;;;;;;3.47;3.17;;;6.00;94.80;;;;;;5041702;28;20249;-79
2022/03/31 00:23:08;;;;;;;3.37;3.07;;;5.90;94.80;;;;;;5030830;28;20227;-79
2022/03/31 00:25:35;;;;;;;2.73;2.50;;;5.90;94.90;;;;;;5031069;28;20266;-85
2022/03/31 00:28:03;;;;;;;5.43;2.80;;;5.90;95.00;;;;;;5032500;28;20209;-85
2022/03/31 00:30:32;;;;;;;2.97;2.70;;;5.90;95.00;;;;;;5032288;28;20249;-86
2022/03/31 00:33:03;;;;;;;3.43;3.10;;;5.80;94.90;;;;;;5032684;28;20208;-85
2022/03/31 00:35:31;;;;;;;3.20;3.00;;;5.60;95.00;;;;;;5031170;28;20197;-81
2022/03/31 00:37:58;;;;;;;4.47;3.00;;;5.60;95.00;;;;;;5030511;28;20208;-81
2022/03/31 00:40:25;;;;;;;3.40;3.10;;;5.70;95.00;;;;;;5030807;28;20258;-80
2022/03/31 00:42:54;;;;;;;4.50;2.53;;;5.70;94.80;;;;;;5030802;28;20235;-81
2022/03/31 00:45:23;;;;;;;3.20;2.90;;;5.80;94.70;;;;;;5030393;28;20200;-81
2022/03/31 00:47:50;;;;;;;4.37;3.97;;;5.80;94.50;;;;;;5030727;28;20311;-81
2022/03/31 00:50:17;;;;;;;3.27;3.07;;;5.60;94.60;;;;;;5030106;28;20265;-80
2022/03/31 00:52:45;;;;;;;3.03;2.60;;;5.50;94.80;;;;;;5027502;28;20213;-81
2022/03/31 00:55:14;;;;;;;3.67;3.03;;;5.50;94.90;;;;;;5030303;28;20640;-81
2022/03/31 00:57:43;;;;;;;3.13;2.80;;;5.50;95.00;;;;;;5030447;28;20209;-81
2022/03/31 01:00:11;;;;;;;3.10;2.80;;;5.30;95.00;;;;;;5029778;28;20200;-81
2022/03/31 01:02:40;;;;;;;3.47;2.60;;;5.20;95.20;;;;;;5044454;28;20271;-80
2022/03/31 01:05:07;;;;;;;2.90;2.70;;;5.10;95.20;;;;;;5050032;28;20213;-81
2022/03/31 01:07:38;;;;;;;3.27;2.60;;;5.20;95.30;;;;;;5049826;28;20624;-81
2022/03/31 01:10:08;;;;;;;3.97;2.80;;;5.20;95.20;;;;;;5029007;28;20201;-81
2022/03/31 01:12:35;;;;;;;3.57;3.27;;;5.00;95.20;;;;;;5029041;28;20694;-81
2022/03/31 01:15:07;;;;;;;3.83;2.90;;;5.00;95.30;;;;;;5029437;28;20217;-80
2022/03/31 01:17:34;;;;;;;4.13;3.07;;;5.00;95.40;;;;;;5030003;28;20205;-81
2022/03/31 01:20:01;;;;;;;3.87;2.73;;;5.20;95.20;;;;;;5029523;28;20233;-80
2022/03/31 01:22:30;;;;;;;3.20;2.83;;;5.20;95.10;;;;;;5029676;28;20208;-81
2022/03/31 01:24:58;;;;;;;4.07;2.73;;;5.10;95.00;;;;;;5030144;28;20259;-80
2022/03/31 01:27:26;;;;;;;2.90;2.70;;;5.20;95.00;;;;;;5029603;28;20197;-81
2022/03/31 01:29:53;;;;;;;3.67;3.00;;;4.80;95.10;;;;;;5029791;28;20640;-81
2022/03/31 01:32:19;;;;;;;3.03;2.73;;;4.90;95.20;;;;;;5029349;28;20641;-81
2022/03/31 01:34:46;;;;;;;3.20;2.90;;;4.90;95.20;;;;;;5029397;28;20201;-79
2022/03/31 01:37:13;;;;;;;3.00;2.80;;;5.00;95.10;;;;;;5029525;28;20295;-81
2022/03/31 01:39:40;;;;;;;5.77;3.10;;;5.00;94.90;;;;;;5029359;28;20547;-80
2022/03/31 01:42:09;;;;;;;2.90;2.60;;;4.80;95.00;;;;;;5029236;28;20231;-80
2022/03/31 01:44:36;;;;;;;4.03;2.67;;;4.80;95.00;;;;;;5029248;28;20224;-80
2022/03/31 01:47:02;;;;;;;2.90;2.70;;;4.80;95.00;;;;;;5029206;28;20879;-80
2022/03/31 01:49:29;;;;;;;2.70;2.50;;;4.70;94.90;;;;;;5029004;28;20270;-83
2022/03/31 01:51:56;;;;;;;4.57;3.80;;;4.80;95.10;;;;;;5028530;28;20244;-82
2022/03/31 01:54:23;;;;;;;4.27;2.80;;;4.70;95.00;;;;;;5027105;28;20237;-81
2022/03/31 01:56:49;;;;;;;2.60;2.40;;;4.70;95.00;;;;;;5028879;28;20216;-81
2022/03/31 01:59:17;;;;;;;2.70;2.50;;;4.50;94.90;;;;;;5046252;28;20506;-80
2022/03/31 02:01:44;;;;;;;2.57;2.37;;;4.50;94.90;;;;;;5049267;28;20204;-80
2022/03/31 02:04:10;;;;;;;2.87;2.63;;;4.50;95.10;;;;;;5046616;28;20208;-80
2022/03/31 02:06:37;;;;;;;3.50;3.20;;;4.50;95.10;;;;;;5028113;28;20266;-80
2022/03/31 02:09:04;;;;;;;4.27;2.47;;;4.60;95.20;;;;;;5028863;28;20290;-80
2022/03/31 02:11:32;;;;;;;2.67;2.43;;;4.60;95.30;;;;;;5028446;28;20233;-80
2022/03/31 02:13:59;;;;;;;3.53;2.50;;;4.50;95.10;;;;;;5028611;28;20209;-80
2022/03/31 02:16:27;;;;;;;4.27;2.83;;;4.50;95.20;;;;;;5029168;28;20255;-84
2022/03/31 02:18:54;;;;;;;2.47;2.27;;;4.50;95.00;;;;;;5033735;28;20240;-83
2022/03/31 02:21:21;;;;;;;3.30;2.40;;;4.50;95.00;;;;;;5049289;28;20199;-84
2022/03/31 02:23:48;;;;;;;2.90;2.60;;;4.30;95.30;;;;;;5032374;28;20248;-83
2022/03/31 02:26:14;;;;;;;3.50;2.60;;;4.30;95.10;;;;;;5029165;28;20714;-81
2022/03/31 02:28:41;;;;;;;2.40;2.20;;;4.30;95.20;;;;;;5028418;28;20205;-81
2022/03/31 02:31:08;;;;;;;2.70;2.50;;;4.40;95.20;;;;;;5028352;28;20248;-82
2022/03/31 02:33:36;;;;;;;3.23;2.30;;;4.30;95.20;;;;;;5028758;28;20300;-81
2022/03/31 02:36:09;;;;;;;2.60;2.40;;;4.20;95.20;;;;;;5028319;28;20212;-82
2022/03/31 02:38:36;;;;;;;2.50;2.30;;;4.20;95.20;;;;;;5028776;28;20201;-81
2022/03/31 02:41:06;;;;;;;2.53;2.33;;;4.40;95.10;;;;;;5028698;28;20235;-82
2022/03/31 02:43:33;;;;;;;2.43;2.23;;;4.20;95.10;;;;;;5028614;28;20267;-82
2022/03/31 02:45:59;;;;;;;2.60;2.40;;;4.10;95.30;;;;;;5028281;28;20205;-81
2022/03/31 02:48:27;;;;;;;2.30;2.10;;;4.10;95.30;;;;;;5028347;28;20204;-82
2022/03/31 02:50:55;;;;;;;2.63;2.10;;;4.10;95.30;;;;;;5027959;28;20263;-80
2022/03/31 02:56:06;;;;;;;2.80;2.37;;;4.00;95.30;;;;;;5008368;28;20197;-81
2022/03/31 02:58:33;;;;;;;3.47;2.50;;;4.10;95.30;;;;;;5008486;28;20217;-81
2022/03/31 03:01:00;;;;;;;2.77;2.27;;;4.10;95.20;;;;;;5014840;28;20208;-80
2022/03/31 03:03:28;;;;;;;2.67;2.20;;;4.00;95.10;;;;;;5028135;28;20211;-81
2022/03/31 03:05:57;;;;;;;2.40;2.20;;;4.00;95.10;;;;;;5028543;28;20211;-81
2022/03/31 03:08:26;;;;;;;2.40;2.20;;;3.90;95.00;;;;;;5028368;28;20215;-82
2022/03/31 03:10:53;;;;;;;3.67;2.30;;;3.90;95.00;;;;;;5028265;28;20215;-82
2022/03/31 03:13:20;;;;;;;2.43;2.23;;;3.90;95.10;;;;;;5028026;28;20729;-84
2022/03/31 03:15:48;;;;;;;2.23;2.00;;;3.90;94.90;;;;;;5028234;28;20232;-83
2022/03/31 03:18:15;;;;;;;2.43;2.23;;;3.80;94.70;;;;;;5022462;28;20555;-83
2022/03/31 03:20:42;;;;;;;2.50;2.30;;;3.80;95.00;;;;;;5040221;28;20314;-83
2022/03/31 03:23:10;;;;;;;3.83;2.40;;;3.60;95.00;;;;;;5026267;28;20660;-83
2022/03/31 03:25:37;;;;;;;4.03;2.50;;;3.60;95.10;;;;;;5026904;28;20208;-85
2022/03/31 03:28:04;;;;;;;2.67;2.40;;;3.50;95.20;;;;;;5026683;28;20208;-83
2022/03/31 03:30:31;;;;;;;4.57;2.30;;;3.60;95.20;;;;;;5026112;28;20216;-82
2022/03/31 03:32:57;;;;;;;2.63;2.43;;;3.60;95.40;;;;;;5025741;28;20370;-82
2022/03/31 03:35:24;;;;;;;2.93;2.13;;;3.70;95.60;;;;;;5028136;28;20212;-84
2022/03/31 03:37:51;;;;;;;2.57;2.10;;;3.60;95.40;;;;;;5030190;28;20240;-83
2022/03/31 03:40:19;;;;;;;2.30;2.07;;;3.60;95.30;;;;;;5029953;28;20271;-83
2022/03/31 03:42:46;;;;;;;2.83;2.20;;;3.60;95.10;;;;;;5030130;28;20209;-84
2022/03/31 03:45:12;;;;;;;3.90;2.70;;;3.50;94.90;;;;;;5029191;28;20251;-81
2022/03/31 03:47:39;;;;;;;4.70;2.17;;;3.60;95.00;;;;;;5030164;28;20562;-82
2022/03/31 03:50:07;;;;;;;2.33;2.20;;;3.50;94.70;;;;;;5029857;28;20251;-83
2022/03/31 03:52:34;;;;;;;1.90;1.80;;;3.50;94.80;;;;;;5029833;28;20271;-83
2022/03/31 03:55:00;;;;;;;2.17;2.00;;;3.60;94.80;;;;;;5029956;28;20267;-83
2022/03/31 03:57:28;;;;;;;3.03;2.00;;;3.20;95.10;;;;;;5022646;28;20210;-82
2022/03/31 03:59:56;;;;;;;3.07;2.20;;;3.30;95.30;;;;;;5029655;28;20212;-84
2022/03/31 04:02:22;;;;;;;2.53;2.33;;;3.30;95.00;;;;;;5028605;28;20264;-82
2022/03/31 04:04:49;;;;;;;3.27;2.20;;;3.30;95.00;;;;;;5025984;28;20204;-83
2022/03/31 04:07:16;;;;;;;4.10;2.27;;;3.10;95.10;;;;;;5006744;28;20771;-83
2022/03/31 04:09:42;;;;;;;2.53;2.20;;;3.30;95.20;;;;;;5009188;28;20240;-82
2022/03/31 04:12:09;;;;;;;2.20;2.10;;;3.40;95.00;;;;;;5020681;28;20235;-83
2022/03/31 04:14:37;;;;;;;2.97;2.10;;;3.20;94.80;;;;;;5019829;28;20223;-83
2022/03/31 04:17:04;;;;;;;2.63;2.43;;;3.20;94.80;;;;;;5021362;28;20624;-83
2022/03/31 04:19:31;;;;;;;2.73;2.17;;;3.10;94.70;;;;;;5024992;28;20236;-82
2022/03/31 04:21:58;;;;;;;2.83;2.00;;;3.10;94.90;;;;;;5029769;28;20660;-83
2022/03/31 04:24:24;;;;;;;3.53;2.23;;;3.10;95.10;;;;;;5029981;28;20212;-83
2022/03/31 04:26:51;;;;;;;2.30;2.10;;;3.10;95.00;;;;;;5030331;28;20220;-82
2022/03/31 04:29:18;;;;;;;2.23;2.03;;;3.00;95.00;;;;;;5027179;28;20216;-83
2022/03/31 04:31:46;;;;;;;2.30;2.10;;;3.10;95.10;;;;;;5029833;28;20287;-82
2022/03/31 04:34:15;;;;;;;2.37;2.00;;;3.20;94.90;;;;;;5029978;28;20213;-83
2022/03/31 04:36:42;;;;;;;3.33;2.07;;;3.30;94.80;;;;;;5029742;28;20205;-83
2022/03/31 04:39:09;;;;;;;3.27;2.30;;;3.20;94.60;;;;;;5029810;28;20247;-83
2022/03/31 04:41:35;;;;;;;2.10;1.70;;;3.10;94.70;;;;;;5029482;28;20208;-83
2022/03/31 04:44:02;;;;;;;3.73;2.00;;;3.00;94.70;;;;;;5029783;28;20201;-83
2022/03/31 04:46:29;;;;;;;2.10;1.90;;;3.00;94.70;;;;;;5030797;28;20216;-83
2022/03/31 04:48:57;;;;;;;2.20;2.00;;;3.10;94.80;;;;;;5029759;28;20639;-83
2022/03/31 04:51:24;;;;;;;1.90;1.80;;;3.20;94.80;;;;;;5029628;28;20219;-83
2022/03/31 04:53:51;;;;;;;2.17;1.97;;;3.10;94.50;;;;;;5029354;28;20235;-83
2022/03/31 04:56:18;;;;;;;2.17;1.90;;;3.20;94.50;;;;;;5024140;28;20614;-82
2022/03/31 04:58:45;;;;;;;2.00;1.87;;;3.10;94.70;;;;;;5028668;28;20802;-82
2022/03/31 05:01:12;;;;;;;1.93;1.73;;;2.90;94.80;;;;;;5029033;28;20614;-82
2022/03/31 05:03:39;;;;;;;2.20;2.00;;;2.80;95.20;;;;;;5025971;28;20209;-85
2022/03/31 05:06:10;;;;;;;2.00;1.90;;;2.60;95.00;;;;;;5028707;28;20255;-84
2022/03/31 05:08:37;;;;;;;2.10;1.90;;;2.70;95.00;;;;;;5028312;28;20197;-83
2022/03/31 05:11:07;;;;;;;1.83;1.73;;;2.60;95.00;;;;;;5029038;28;20205;-83
2022/03/31 05:13:33;;;;;;;1.97;1.70;;;2.70;95.00;;;;;;5028696;28;20213;-83
2022/03/31 05:16:00;;;;;;;2.20;2.00;;;2.80;95.00;;;;;;5028597;28;20209;-84
2022/03/31 05:18:27;;;;;;;1.90;1.77;;;2.70;94.80;;;;;;5029516;28;20212;-84
2022/03/31 05:20:54;;;;;;;2.33;1.90;;;2.70;95.00;;;;;;5048576;28;20301;-83
2022/03/31 05:23:21;;;;;;;3.10;1.93;;;2.80;94.90;;;;;;5028458;28;20793;-84
2022/03/31 05:25:49;;;;;;;2.33;1.80;;;2.70;94.90;;;;;;5028086;28;20201;-84
2022/03/31 05:28:16;;;;;;;1.80;1.70;;;2.90;94.90;;;;;;5028097;28;20207;-83
2022/03/31 05:30:43;;;;;;;2.20;2.00;;;2.90;94.80;;;;;;5028038;28;20196;-81
2022/03/31 05:33:10;;;;;;;2.10;1.93;;;2.80;94.70;;;;;;5028775;28;20209;-84
2022/03/31 05:35:37;;;;;;;3.00;1.60;;;2.70;94.80;;;;;;5028606;28;20197;-84
2022/03/31 05:38:04;;;;;;;2.43;1.90;;;2.70;94.90;;;;;;5028560;28;20209;-83
2022/03/31 05:40:32;;;;;;;1.70;1.60;;;2.80;94.90;;;;;;5028343;28;20209;-83
2022/03/31 05:42:59;;;;;;;1.87;1.60;;;2.70;94.80;;;;;;5022801;28;20829;-83
2022/03/31 05:45:25;;;;;;;2.33;2.00;;;2.70;95.50;;;;;;5028452;28;20204;-83
2022/03/31 05:47:53;;;;;;;2.47;2.00;;;2.90;95.60;;;;;;5028803;28;20208;-83
2022/03/31 05:50:20;;;;;;;1.80;1.43;;;3.00;95.00;;;;;;5028368;28;20850;-82
2022/03/31 05:52:47;;;;;;;1.87;1.70;;;3.10;95.10;;;;;;5028158;28;20204;-83
2022/03/31 05:55:15;;;;;;;2.07;1.87;;;3.10;94.80;;;;;;5027938;28;20270;-82
2022/03/31 05:57:43;;;;;;;1.80;1.70;;;3.10;95.20;;;;;;5026804;28;20252;-82
2022/03/31 06:00:13;;;;;;;2.60;1.80;;;3.20;95.10;;;;;;5026940;28;20200;-84
2022/03/31 06:02:41;;;;;;;2.00;1.80;;;3.10;94.90;;;;;;5022442;28;20762;-83
2022/03/31 06:05:10;;;;;;;1.60;1.50;;;3.00;94.90;;;;;;5027945;28;20205;-83
2022/03/31 06:07:37;;;;;;;4.30;1.77;;;3.00;94.90;;;;;;5027173;28;20243;-83
2022/03/31 06:10:04;;;;;;;2.20;2.00;;;3.00;94.80;;;;;;5027876;28;20205;-84
2022/03/31 06:12:31;;;;;;;2.27;2.07;;;3.00;94.70;;;;;;5027401;28;20263;-83
2022/03/31 06:14:59;;;;;;;2.17;1.90;;;2.80;94.60;;;;;;5027350;28;20571;-83
2022/03/31 06:17:26;;;;;;;3.27;1.73;;;2.60;94.80;;;;;;5028116;28;20255;-83
2022/03/31 06:19:52;;;;;;;2.37;1.73;;;2.70;95.00;;;;;;5029037;28;20286;-83
2022/03/31 06:22:19;;;;;;;1.70;1.60;;;2.70;95.00;;;;;;5027030;28;20290;-84
2022/03/31 06:24:46;;;;;;;1.70;1.60;;;2.70;95.00;;;;;;5028108;28;20205;-82
2022/03/31 06:27:12;;;;;;;1.80;1.70;;;2.80;95.00;;;;;;5028269;28;20201;-83
2022/03/31 06:29:41;;;;;;;2.73;2.27;;;2.80;95.10;;;;;;5027603;28;20201;-83
2022/03/31 06:32:10;;;;;;;2.30;1.87;;;2.80;95.00;;;;;;5027384;28;20200;-83
2022/03/31 06:34:37;;;;;;;1.77;1.67;;;2.80;94.90;;;;;;5027085;28;20230;-83
2022/03/31 06:37:04;;;;;;;2.33;1.93;;;2.70;95.10;;;;;;5027286;28;20285;-83
2022/03/31 06:39:31;;;;;;;2.20;2.00;;;2.90;95.00;;;;;;5026567;28;20209;-83
2022/03/31 06:41:58;;;;;;;2.67;1.90;;;2.90;94.90;;;;;;5027356;28;20223;-84
2022/03/31 06:44:24;;;;;;;2.00;1.90;;;2.80;94.80;;;;;;5026838;28;20213;-81
2022/03/31 06:46:51;;;;;;;1.93;1.83;;;3.00;95.20;;;;;;5026959;28;20204;-82
2022/03/31 06:49:21;;;;;;;2.37;2.17;;;2.90;95.30;;;;;;5027435;28;20201;-82
2022/03/31 06:51:47;;;;;;;2.53;1.77;;;3.00;95.50;;;;;;5027232;28;20292;-84
2022/03/31 06:54:14;;;;;;;1.70;1.60;;;3.10;95.10;;;;;;5027261;28;20270;-83
2022/03/31 06:56:41;;;;;;;2.10;1.80;;;3.20;94.80;;;;;;5026580;28;20231;-83
2022/03/31 06:59:08;;;;;;;1.87;1.77;;;3.30;94.80;;;;;;5026255;28;20196;-82
2022/03/31 07:01:35;;;;;;;3.43;2.10;;;3.40;94.70;;;;;;5027121;28;20612;-83
2022/03/31 07:04:01;;;;;;;2.10;1.90;;;3.30;94.50;;;;;;5027048;28;20307;-82
2022/03/31 07:06:29;;;;;;;2.13;1.93;;;3.40;94.50;;;;;;5027007;28;20200;-83
2022/03/31 07:08:56;;;;;;;3.80;1.90;;;3.50;94.60;;;;;;5026886;28;20201;-83
2022/03/31 07:11:23;;;;;;;2.10;2.00;;;3.60;94.50;;;;;;5031657;28;20352;-82
2022/03/31 07:13:49;;;;;;;2.00;1.90;;;3.70;94.50;;;;;;5030891;28;20286;-82
2022/03/31 07:16:17;;;;;;;2.30;2.10;;;3.70;94.40;;;;;;5031071;28;20197;-83
2022/03/31 07:18:44;;;;;;;1.97;1.87;;;3.80;94.20;;;;;;5031727;28;20397;-83
2022/03/31 07:21:11;;;;;;;3.23;2.30;;;3.80;94.20;;;;;;5031099;28;20205;-83
2022/03/31 07:23:40;;;;;;;2.53;2.17;;;3.80;94.00;;;;;;5031160;28;20267;-83
2022/03/31 07:26:07;;;;;;;2.40;2.20;;;3.90;93.90;;;;;;5030876;28;20667;-82
2022/03/31 07:28:33;;;;;;;2.20;2.00;;;4.00;93.90;;;;;;5030839;28;20200;-82
2022/03/31 07:31:00;;;;;;;1.83;1.73;;;4.00;93.70;;;;;;5030553;28;20664;-83
2022/03/31 07:33:26;;;;;;;3.17;2.30;;;3.90;93.90;;;;;;5031139;28;20201;-83
2022/03/31 07:35:53;;;;;;;4.00;2.10;;;3.90;93.80;;;;;;5030835;28;20213;-82
2022/03/31 07:38:20;;;;;;;2.23;2.03;;;3.80;94.00;;;;;;5030973;28;20209;-82
2022/03/31 07:40:49;;;;;;;2.47;2.30;;;4.00;94.20;;;;;;5030048;28;20205;-82
2022/03/31 07:43:16;;;;;;;2.07;1.87;;;4.10;94.00;;;;;;5030641;28;20224;-83
2022/03/31 07:45:44;;;;;;;2.67;2.17;;;4.20;93.90;;;;;;5030964;28;20263;-83
2022/03/31 07:48:15;;;;;;;2.40;2.20;;;4.10;93.70;;;;;;5030761;28;20199;-82
2022/03/31 07:50:42;;;;;;;2.40;2.20;;;4.10;93.70;;;;;;5030258;28;20695;-84
2022/03/31 07:53:10;;;;;;;3.03;2.00;;;4.00;93.70;;;;;;5025861;28;20213;-83
2022/03/31 07:55:37;;;;;;;8.73;2.70;;;4.20;93.70;;;;;;5029506;28;20204;-78
2022/03/31 07:58:05;;;;;;;7.53;2.83;;;4.20;93.90;;;;;;5030421;28;20656;-78
2022/03/31 08:00:32;;;;;;;3.50;2.13;;;4.30;94.00;;;;;;5030133;28;20234;-79
2022/03/31 08:03:01;;;;;;;1.93;1.80;;;4.40;93.70;;;;;;5030912;28;20225;-84
2022/03/31 08:05:29;;;;;;;2.97;2.30;;;4.40;93.50;;;;;;5030859;28;20623;-83
2022/03/31 08:07:56;;;;;;;2.87;2.60;;;4.40;93.20;;;;;;5030358;28;20229;-82
2022/03/31 08:10:23;;;;;;;2.37;2.17;;;4.40;93.30;;;;;;5030434;28;20205;-84
2022/03/31 08:12:50;;;;;;;4.27;2.00;;;4.50;93.40;;;;;;5030383;28;20660;-84
2022/03/31 08:15:19;;;;;;;2.30;2.10;;;4.60;93.20;;;;;;5029923;28;20259;-84
2022/03/31 08:17:47;;;;;;;5.33;2.20;;;4.70;93.00;;;;;;5029537;28;20205;-80
2022/03/31 08:20:15;;;;;;;1.93;1.83;;;4.70;93.10;;;;;;5025771;28;20718;-80
2022/03/31 08:22:42;;;;;;;2.90;2.20;;;4.70;93.20;;;;;;5029173;28;20667;-80
2022/03/31 08:25:10;;;;;;;2.23;2.03;;;4.80;93.10;;;;;;5029887;28;20200;-83
2022/03/31 08:27:38;;;;;;;2.17;2.07;;;4.80;92.90;;;;;;5029866;28;20687;-83
2022/03/31 08:30:07;;;;;;;2.57;2.07;;;4.80;92.80;;;;;;5029467;28;20224;-83
2022/03/31 08:32:38;;;;;;;3.43;2.33;;;4.80;92.70;;;;;;5029217;28;20228;-84
2022/03/31 08:35:06;;;;;;;2.60;2.37;;;4.90;92.80;;;;;;5021543;28;20204;-82
2022/03/31 08:37:33;;;;;;;3.07;2.23;;;5.10;93.10;;;;;;5024521;28;20216;-84
2022/03/31 08:40:00;;;;;;;2.93;1.90;;;5.30;93.20;;;;;;5029087;28;20752;-84
2022/03/31 08:42:26;;;;;;;2.30;2.20;;;5.40;92.30;;;;;;5029536;28;20236;-83
2022/03/31 08:44:57;;;;;;;3.73;2.80;;;5.40;92.30;;;;;;5029637;28;20711;-84
2022/03/31 08:47:26;;;;;;;2.77;2.57;;;5.50;92.20;;;;;;5029644;28;20652;-84
2022/03/31 08:49:54;;;;;;;2.70;2.50;;;5.50;92.20;;;;;;5024673;28;20197;-83
2022/03/31 08:52:21;;;;;;;2.33;2.23;;;5.50;92.10;;;;;;5029240;28;20561;-84
2022/03/31 08:54:48;;;;;;;2.73;2.10;;;5.60;92.30;;;;;;5029000;28;20225;-83
2022/03/31 08:57:15;;;;;;;2.10;2.00;;;5.80;92.30;;;;;;5029464;28;20848;-83
2022/03/31 08:59:42;;;;;;;2.33;2.13;;;5.90;92.00;;;;;;5029685;28;20201;-84
2022/03/31 09:02:09;;;;;;;2.70;2.47;;;5.90;91.80;;;;;;5029645;28;20251;-84
2022/03/31 09:04:36;;;;;;;3.97;2.60;;;6.00;91.80;;;;;;5029913;28;20244;-83
2022/03/31 09:07:04;;;;;;;2.87;2.30;;;6.00;91.70;;;;;;5029552;28;20205;-85
2022/03/31 09:09:31;;;;;;;2.83;2.53;;;6.10;91.50;;;;;;5029632;28;20610;-85
2022/03/31 09:11:58;;;;;;;4.23;2.30;;;6.10;91.70;;;;;;5029578;28;20619;-84
2022/03/31 09:14:30;;;;;;;2.30;2.10;;;6.30;91.70;;;;;;5029491;28;20196;-84
2022/03/31 09:16:57;;;;;;;3.77;2.40;;;6.40;91.40;;;;;;5027607;28;20607;-84
2022/03/31 09:19:24;;;;;;;3.47;2.57;;;6.50;91.40;;;;;;5033221;28;20290;-84
2022/03/31 09:21:51;;;;;;;3.27;2.30;;;6.60;91.50;;;;;;5028712;28;20201;-85
2022/03/31 09:24:20;;;;;;;2.50;2.30;;;6.80;91.50;;;;;;5029304;28;20240;-84
2022/03/31 09:26:47;;;;;;;3.90;2.50;;;6.80;91.40;;;;;;5029097;28;20201;-84
2022/03/31 09:29:15;;;;;;;2.47;2.27;;;7.00;91.30;;;;;;5025909;28;20209;-84
2022/03/31 09:31:42;;;;;;;3.43;2.73;;;7.10;91.30;;;;;;5028220;28;20543;-85
2022/03/31 09:34:09;;;;;;;3.30;2.27;;;7.20;91.20;;;;;;5028705;28;20247;-84
2022/03/31 09:36:37;;;;;;;4.73;2.47;;;7.20;91.00;;;;;;5028598;28;20216;-84
2022/03/31 09:39:07;;;;;;;3.00;2.50;;;7.30;90.90;;;;;;5028442;28;20303;-84
2022/03/31 09:41:37;;;;;;;6.93;3.03;;;7.30;90.80;;;;;;5026091;28;20197;-83
2022/03/31 09:44:06;;;;;;;2.87;2.33;;;7.40;91.10;;;;;;5028589;28;20267;-84
2022/03/31 09:46:35;;;;;;;6.27;2.60;;;7.50;90.80;;;;;;5028281;28;20255;-85
2022/03/31 09:49:12;;;;;;;2.50;2.30;;;7.50;90.60;;;;;;5028280;28;20193;-84
2022/03/31 09:51:38;;;;;;;3.00;2.30;;;7.60;90.50;;;;;;5026473;28;20189;-85
2022/03/31 09:54:06;;;;;;;2.50;2.30;;;7.70;90.80;;;;;;5028364;28;20232;-84
2022/03/31 09:56:38;;;;;;;1.97;1.87;;;7.80;90.60;;;;;;5027736;28;20730;-83
2022/03/31 09:59:06;;;;;;;2.37;2.17;;;7.90;90.70;;;;;;5027569;28;20247;-84
2022/03/31 10:01:33;;;;;;;6.90;2.80;;;8.00;90.40;;;;;;5025017;28;20288;-84
2022/03/31 10:04:00;;;;;;;3.93;2.40;;;7.90;90.20;;;;;;5026922;28;20232;-84
2022/03/31 10:06:27;;;;;;;2.77;2.53;;;7.90;90.40;;;;;;5027414;28;20250;-84
2022/03/31 10:08:57;;;;;;;2.43;2.23;;;7.80;90.20;;;;;;5027673;28;20197;-84
2022/03/31 10:11:24;;;;;;;2.73;2.53;;;7.90;90.80;;;;;;5027675;28;20209;-84
2022/03/31 10:14:03;;;;;;;2.70;2.47;;;8.00;90.30;;;;;;5027809;28;20257;-83
2022/03/31 10:16:38;;;;;;;3.37;2.43;;;8.20;90.20;;;;;;5024890;28;20552;-84
2022/03/31 10:19:05;;;;;;;2.80;2.30;;;8.30;90.40;;;;;;5032136;28;20227;-84
2022/03/31 10:21:31;;;;;;;3.73;2.70;;;8.20;90.10;;;;;;5027309;28;20640;-85
2022/03/31 10:26:44;;;;;;;3.43;2.50;;;8.50;90.10;;;;;;5027703;28;20239;-84
2022/03/31 10:29:14;;;;;;;3.47;2.90;;;8.70;90.10;;;;;;5028005;28;20201;-84
2022/03/31 10:31:42;;;;;;;8.60;3.47;;;8.80;89.80;;;;;;5027503;28;20981;-84
2022/03/31 10:34:10;;;;;;;4.00;2.63;;;8.80;89.70;;;;;;5028010;28;20201;-84
2022/03/31 10:36:39;;;;;;;3.47;2.67;;;8.80;89.10;;;;;;5026979;28;20841;-84
2022/03/31 10:39:09;;;;;;;4.23;2.97;;;8.80;89.00;;;;;;5025108;28;20627;-84
2022/03/31 10:41:37;;;;;;;3.13;2.83;;;8.90;89.60;;;;;;5027744;28;20263;-84
2022/03/31 10:44:05;;;;;;;3.37;2.40;;;8.90;89.20;;;;;;5027147;28;20753;-84
2022/03/31 10:46:33;;;;;;;2.90;2.60;;;9.00;89.60;;;;;;5025535;28;20255;-84
2022/03/31 10:48:59;;;;;;;3.50;2.77;;;9.10;89.00;;;;;;5027843;28;20596;-83
2022/03/31 10:51:33;;;;;;;3.53;2.50;;;9.20;89.70;;;;;;5024340;28;20254;-84
2022/03/31 10:54:00;;;;;;;3.07;2.83;;;9.30;89.70;;;;;;5027366;28;20247;-83
2022/03/31 10:56:28;;;;;;;3.27;2.97;;;9.40;89.10;;;;;;5007770;28;20248;-84
2022/03/31 10:58:57;;;;;;;3.20;3.00;;;9.50;87.90;;;;;;5007407;28;20213;-84
2022/03/31 11:01:28;;;;;;;3.03;2.80;;;9.50;88.20;;;;;;5013642;28;20718;-84
2022/03/31 11:04:02;;;;;;;4.50;3.00;;;9.50;87.80;;;;;;5027281;28;20930;-84
2022/03/31 11:06:30;;;;;;;3.00;2.70;;;9.60;88.20;;;;;;5027051;28;20197;-84
2022/03/31 11:08:56;;;;;;;2.80;2.60;;;9.70;87.80;;;;;;5027185;28;20193;-84
2022/03/31 11:11:27;;;;;;;2.90;2.63;;;9.60;87.30;;;;;;5027253;28;20201;-83
2022/03/31 11:13:55;;;;;;;3.10;2.83;;;9.50;87.00;;;;;;5027082;28;20193;-83
2022/03/31 11:16:23;;;;;;;2.90;2.40;;;9.60;87.80;;;;;;5027277;28;20201;-84
2022/03/31 11:18:56;;;;;;;4.23;2.30;;;9.80;88.10;;;;;;5029933;28;20244;-84
2022/03/31 11:21:25;;;;;;;3.40;3.10;;;9.90;86.60;;;;;;5027040;28;20213;-83
2022/03/31 11:23:53;;;;;;;3.97;2.70;;;10.00;86.00;;;;;;5027519;28;20228;-83
2022/03/31 11:26:26;;;;;;;2.77;2.57;;;10.00;85.90;;;;;;5027637;28;20205;-84
2022/03/31 11:28:53;;;;;;;2.77;2.47;;;10.10;86.00;;;;;;5023514;28;20224;-81
2022/03/31 11:31:20;;;;;;;2.77;2.57;;;10.30;86.40;;;;;;5025316;28;20277;-81
2022/03/31 11:33:47;;;;;;;2.80;2.60;;;10.40;85.30;;;;;;5025050;28;20224;-81
2022/03/31 11:36:14;;;;;;;3.00;2.40;;;10.50;85.70;;;;;;5027769;28;20208;-81
2022/03/31 11:38:42;;;;;;;2.57;2.40;;;10.50;83.80;;;;;;5027570;28;20205;-81
2022/03/31 11:41:09;;;;;;;2.77;2.57;;;10.50;83.40;;;;;;5027628;28;20213;-81
2022/03/31 11:43:39;;;;;;;2.97;2.63;;;10.60;83.30;;;;;;5027577;28;20204;-80
2022/03/31 11:46:08;;;;;;;2.80;2.60;;;10.60;83.20;;;;;;5024609;28;20197;-81
2022/03/31 11:48:39;;;;;;;3.87;2.47;;;10.70;83.50;;;;;;5027426;28;20741;-81
2022/03/31 11:51:08;;;;;;;2.77;2.57;;;10.70;83.50;;;;;;5027454;28;20229;-83
2022/03/31 11:53:38;;;;;;;3.47;2.73;;;10.70;83.60;;;;;;5023731;28;20224;-81
2022/03/31 11:56:16;;;;;;;7.13;3.00;;;10.70;83.70;;;;;;5028776;28;20215;-82
2022/03/31 11:58:48;;;;;;;2.50;2.30;;;10.60;82.60;;;;;;5030055;28;20725;-82
2022/03/31 12:01:15;;;;;;;3.23;2.93;;;10.50;82.50;;;;;;5030172;28;20201;-82
2022/03/31 12:03:42;;;;;;;3.90;2.60;;;10.40;81.80;;;;;;5027079;28;20213;-81
2022/03/31 12:06:10;;;;;;;2.90;2.10;;;10.30;81.80;;;;;;5027549;28;20576;-81
2022/03/31 12:08:38;;;;;;;2.80;2.60;;;10.20;82.00;;;;;;5028705;28;20209;-82
2022/03/31 12:11:09;;;;;;;3.87;2.63;;;10.10;82.50;;;;;;5029147;28;20216;-81
2022/03/31 12:13:48;;;;;;;3.63;2.80;;;10.10;83.30;;;;;;5028678;28;20217;-82
2022/03/31 12:16:14;;;;;;;10.63;3.97;;;10.20;83.70;;;;;;5015701;28;20202;-82
2022/03/31 12:18:44;;;;;;;2.97;2.77;;;10.20;83.10;;;;;;5035727;28;20219;-82
2022/03/31 12:21:11;;;;;;;2.70;2.50;;;10.20;83.70;;;;;;5048802;28;20313;-82
2022/03/31 12:23:42;;;;;;;3.27;2.63;;;10.30;83.50;;;;;;5023447;28;20715;-82
2022/03/31 12:26:16;;;;;;;3.33;3.03;;;10.20;83.20;;;;;;5007928;28;20805;-82
2022/03/31 12:28:43;;;;;;;3.23;2.80;;;10.10;83.40;;;;;;5019950;28;20220;-82
2022/03/31 12:31:20;;;;;;;3.63;3.33;;;10.00;83.50;;;;;;5028346;28;20205;-81
2022/03/31 12:33:50;;;;;;;3.23;2.93;;;10.10;84.20;;;;;;5028081;28;20219;-82
2022/03/31 12:36:17;;;;;;;2.77;2.57;;;10.00;83.70;;;;;;5028292;28;20299;-82
2022/03/31 12:38:46;;;;;;;2.73;2.53;;;10.00;83.90;;;;;;5028112;28;20236;-82
2022/03/31 12:41:21;;;;;;;2.97;2.60;;;10.00;85.10;;;;;;5027206;28;20197;-83
2022/03/31 12:44:00;;;;;;;3.13;2.83;;;9.90;85.50;;;;;;5027941;28;20197;-83
2022/03/31 12:46:29;;;;;;;3.10;2.83;;;9.90;84.80;;;;;;5038569;28;20227;-83
2022/03/31 12:48:58;;;;;;;3.40;2.80;;;9.80;84.90;;;;;;5029659;28;20634;-83
2022/03/31 12:51:25;;;;;;;3.30;3.00;;;9.70;85.20;;;;;;5028220;28;20255;-83
2022/03/31 12:53:53;;;;;;;3.13;2.83;;;9.60;85.20;;;;;;5027421;28;20220;-83
2022/03/31 12:56:36;;;;;;;2.73;2.50;;;9.60;85.10;;;;;;5027495;28;20240;-83
2022/03/31 12:59:03;;;;;;;8.77;2.70;;;9.80;85.10;;;;;;5026137;28;20193;-83
2022/03/31 13:01:29;;;;;;;6.40;2.97;;;10.00;85.60;;;;;;5027176;28;20270;-83
2022/03/31 13:03:56;;;;;;;5.80;3.20;;;10.10;84.70;;;;;;5031704;28;20209;-82